sensor_id;sensor_type;location;lat;lon;timestamp;P1;durP1;ratioP1;P2;durP2;ratioP2
11139;SDS011;5624;49.388;11.350;2024-01-15T00:01:16;49.40;;;25.23;;
11139;SDS011;5624;49.388;11.350;2024-01-15T00:03:42;45.83;;;24.40;;
11139;SDS011;5624;49.388;11.350;2024-01-15T00:06:07;47.07;;;25.43;;
11139;SDS011;5624;49.388;11.350;2024-01-15T00:08:33;46.63;;;24.57;;
11139;SDS011;5624;49.388;11.350;2024-01-15T00:10:58;47.57;;;24.77;;
11139;SDS011;5624;49.388;11.350;2024-01-15T00:13:24;46.83;;;25.43;;
11139;SDS011;5624;49.388;11.350;2024-01-15T00:15:49;47.43;;;25.67;;
11139;SDS011;5624;49.388;11.350;2024-01-15T00:18:15;50.27;;;25.87;;
11139;SDS011;5624;49.388;11.350;2024-01-15T00:20:40;46.90;;;24.93;;
11139;SDS011;5624;49.388;11.350;2024-01-15T00:23:06;44.80;;;24.83;;
11139;SDS011;5624;49.388;11.350;2024-01-15T00:25:31;49.23;;;26.23;;
11139;SDS011;5624;49.388;11.350;2024-01-15T00:27:57;47.40;;;24.30;;
11139;SDS011;5624;49.388;11.350;2024-01-15T00:30:22;49.10;;;26.33;;
11139;SDS011;5624;49.388;11.350;2024-01-15T00:32:48;49.00;;;24.10;;
11139;SDS011;5624;49.388;11.350;2024-01-15T00:35:14;46.23;;;24.63;;
11139;SDS011;5624;49.388;11.350;2024-01-15T00:37:39;50.13;;;25.23;;
11139;SDS011;5624;49.388;11.350;2024-01-15T00:40:05;44.40;;;24.67;;
11139;SDS011;5624;49.388;11.350;2024-01-15T00:42:32;51.10;;;24.13;;
11139;SDS011;5624;49.388;11.350;2024-01-15T00:44:58;46.53;;;24.90;;
11139;SDS011;5624;49.388;11.350;2024-01-15T00:47:24;52.90;;;28.10;;
11139;SDS011;5624;49.388;11.350;2024-01-15T00:49:49;50.30;;;25.97;;
11139;SDS011;5624;49.388;11.350;2024-01-15T00:52:15;52.37;;;27.30;;
11139;SDS011;5624;49.388;11.350;2024-01-15T00:54:40;53.13;;;25.53;;
11139;SDS011;5624;49.388;11.350;2024-01-15T00:57:06;51.33;;;25.60;;
11139;SDS011;5624;49.388;11.350;2024-01-15T00:59:31;53.07;;;27.13;;
11139;SDS011;5624;49.388;11.350;2024-01-15T01:01:56;52.33;;;27.43;;
11139;SDS011;5624;49.388;11.350;2024-01-15T01:04:22;58.77;;;26.77;;
11139;SDS011;5624;49.388;11.350;2024-01-15T01:06:47;49.70;;;24.37;;
11139;SDS011;5624;49.388;11.350;2024-01-15T01:09:13;52.53;;;26.33;;
11139;SDS011;5624;49.388;11.350;2024-01-15T01:11:39;49.73;;;26.97;;
11139;SDS011;5624;49.388;11.350;2024-01-15T01:14:04;47.47;;;25.83;;
11139;SDS011;5624;49.388;11.350;2024-01-15T01:16:30;53.60;;;26.33;;
11139;SDS011;5624;49.388;11.350;2024-01-15T01:18:56;47.57;;;24.13;;
11139;SDS011;5624;49.388;11.350;2024-01-15T01:21:22;51.10;;;26.57;;
11139;SDS011;5624;49.388;11.350;2024-01-15T01:23:47;52.67;;;27.10;;
11139;SDS011;5624;49.388;11.350;2024-01-15T01:26:16;50.67;;;26.17;;
11139;SDS011;5624;49.388;11.350;2024-01-15T01:28:42;44.60;;;25.70;;
11139;SDS011;5624;49.388;11.350;2024-01-15T01:31:08;52.77;;;26.30;;
11139;SDS011;5624;49.388;11.350;2024-01-15T01:33:33;54.90;;;26.10;;
11139;SDS011;5624;49.388;11.350;2024-01-15T01:35:59;51.33;;;26.07;;
11139;SDS011;5624;49.388;11.350;2024-01-15T01:38:24;49.03;;;24.53;;
11139;SDS011;5624;49.388;11.350;2024-01-15T01:40:50;52.53;;;25.70;;
11139;SDS011;5624;49.388;11.350;2024-01-15T01:43:15;48.53;;;25.33;;
11139;SDS011;5624;49.388;11.350;2024-01-15T01:45:41;44.93;;;24.17;;
11139;SDS011;5624;49.388;11.350;2024-01-15T01:48:07;47.37;;;25.07;;
11139;SDS011;5624;49.388;11.350;2024-01-15T01:50:32;53.10;;;24.93;;
11139;SDS011;5624;49.388;11.350;2024-01-15T01:52:58;51.73;;;26.53;;
11139;SDS011;5624;49.388;11.350;2024-01-15T01:55:26;46.67;;;26.03;;
11139;SDS011;5624;49.388;11.350;2024-01-15T01:57:52;45.50;;;23.93;;
11139;SDS011;5624;49.388;11.350;2024-01-15T02:00:19;44.50;;;24.73;;
11139;SDS011;5624;49.388;11.350;2024-01-15T02:02:45;49.17;;;25.43;;
11139;SDS011;5624;49.388;11.350;2024-01-15T02:05:10;42.70;;;23.67;;
11139;SDS011;5624;49.388;11.350;2024-01-15T02:07:39;47.03;;;25.67;;
11139;SDS011;5624;49.388;11.350;2024-01-15T02:10:05;46.40;;;22.87;;
11139;SDS011;5624;49.388;11.350;2024-01-15T02:12:31;46.00;;;24.07;;
11139;SDS011;5624;49.388;11.350;2024-01-15T02:14:57;43.87;;;25.63;;
11139;SDS011;5624;49.388;11.350;2024-01-15T02:17:22;40.57;;;23.80;;
11139;SDS011;5624;49.388;11.350;2024-01-15T02:19:49;43.60;;;23.60;;
11139;SDS011;5624;49.388;11.350;2024-01-15T02:22:15;46.83;;;24.97;;
11139;SDS011;5624;49.388;11.350;2024-01-15T02:24:40;47.03;;;24.20;;
11139;SDS011;5624;49.388;11.350;2024-01-15T02:27:06;44.57;;;23.97;;
11139;SDS011;5624;49.388;11.350;2024-01-15T02:29:32;45.87;;;24.80;;
11139;SDS011;5624;49.388;11.350;2024-01-15T02:31:58;44.27;;;24.00;;
11139;SDS011;5624;49.388;11.350;2024-01-15T02:34:23;42.77;;;22.67;;
11139;SDS011;5624;49.388;11.350;2024-01-15T02:36:49;45.97;;;25.13;;
11139;SDS011;5624;49.388;11.350;2024-01-15T02:39:14;45.73;;;25.23;;
11139;SDS011;5624;49.388;11.350;2024-01-15T02:41:40;38.60;;;22.37;;
11139;SDS011;5624;49.388;11.350;2024-01-15T02:44:05;43.17;;;23.83;;
11139;SDS011;5624;49.388;11.350;2024-01-15T02:46:31;40.73;;;22.40;;
11139;SDS011;5624;49.388;11.350;2024-01-15T02:48:56;41.47;;;21.87;;
11139;SDS011;5624;49.388;11.350;2024-01-15T02:51:22;42.93;;;22.77;;
11139;SDS011;5624;49.388;11.350;2024-01-15T02:53:48;41.97;;;22.87;;
11139;SDS011;5624;49.388;11.350;2024-01-15T02:56:15;41.40;;;22.53;;
11139;SDS011;5624;49.388;11.350;2024-01-15T02:58:40;40.47;;;23.27;;
11139;SDS011;5624;49.388;11.350;2024-01-15T03:01:06;38.83;;;21.00;;
11139;SDS011;5624;49.388;11.350;2024-01-15T03:03:31;44.23;;;22.67;;
11139;SDS011;5624;49.388;11.350;2024-01-15T03:05:58;35.50;;;19.63;;
11139;SDS011;5624;49.388;11.350;2024-01-15T03:08:23;37.57;;;20.73;;
11139;SDS011;5624;49.388;11.350;2024-01-15T03:10:49;35.37;;;20.13;;
11139;SDS011;5624;49.388;11.350;2024-01-15T03:13:14;32.07;;;18.23;;
11139;SDS011;5624;49.388;11.350;2024-01-15T03:15:40;31.93;;;18.60;;
11139;SDS011;5624;49.388;11.350;2024-01-15T03:18:05;34.20;;;19.07;;
11139;SDS011;5624;49.388;11.350;2024-01-15T03:20:31;36.47;;;19.70;;
11139;SDS011;5624;49.388;11.350;2024-01-15T03:22:57;41.13;;;19.87;;
11139;SDS011;5624;49.388;11.350;2024-01-15T03:25:22;32.57;;;17.57;;
11139;SDS011;5624;49.388;11.350;2024-01-15T03:27:47;34.80;;;18.37;;
11139;SDS011;5624;49.388;11.350;2024-01-15T03:30:13;32.93;;;17.83;;
11139;SDS011;5624;49.388;11.350;2024-01-15T03:32:39;32.03;;;17.80;;
11139;SDS011;5624;49.388;11.350;2024-01-15T03:35:04;32.10;;;18.33;;
11139;SDS011;5624;49.388;11.350;2024-01-15T03:37:30;34.20;;;17.80;;
11139;SDS011;5624;49.388;11.350;2024-01-15T03:39:56;30.53;;;17.67;;
11139;SDS011;5624;49.388;11.350;2024-01-15T03:42:21;33.27;;;17.47;;
11139;SDS011;5624;49.388;11.350;2024-01-15T03:44:47;32.13;;;16.50;;
11139;SDS011;5624;49.388;11.350;2024-01-15T03:47:13;34.23;;;17.93;;
11139;SDS011;5624;49.388;11.350;2024-01-15T03:49:39;34.80;;;17.53;;
11139;SDS011;5624;49.388;11.350;2024-01-15T03:52:05;31.10;;;17.00;;
11139;SDS011;5624;49.388;11.350;2024-01-15T03:54:30;35.10;;;18.00;;
11139;SDS011;5624;49.388;11.350;2024-01-15T03:56:56;30.10;;;16.10;;
11139;SDS011;5624;49.388;11.350;2024-01-15T03:59:21;32.90;;;17.53;;
11139;SDS011;5624;49.388;11.350;2024-01-15T04:01:49;32.20;;;16.97;;
11139;SDS011;5624;49.388;11.350;2024-01-15T04:04:18;36.87;;;18.00;;
11139;SDS011;5624;49.388;11.350;2024-01-15T04:06:43;31.70;;;17.33;;
11139;SDS011;5624;49.388;11.350;2024-01-15T04:09:09;28.37;;;16.00;;
11139;SDS011;5624;49.388;11.350;2024-01-15T04:11:34;32.00;;;16.27;;
11139;SDS011;5624;49.388;11.350;2024-01-15T04:14:00;34.20;;;16.37;;
11139;SDS011;5624;49.388;11.350;2024-01-15T04:16:25;31.63;;;16.77;;
11139;SDS011;5624;49.388;11.350;2024-01-15T04:18:51;29.20;;;16.30;;
11139;SDS011;5624;49.388;11.350;2024-01-15T04:21:17;32.67;;;17.17;;
11139;SDS011;5624;49.388;11.350;2024-01-15T04:23:43;30.07;;;15.60;;
11139;SDS011;5624;49.388;11.350;2024-01-15T04:26:09;29.30;;;15.70;;
11139;SDS011;5624;49.388;11.350;2024-01-15T04:28:34;31.20;;;16.07;;
11139;SDS011;5624;49.388;11.350;2024-01-15T04:31:00;28.73;;;15.73;;
11139;SDS011;5624;49.388;11.350;2024-01-15T04:33:25;28.97;;;14.77;;
11139;SDS011;5624;49.388;11.350;2024-01-15T04:35:51;27.60;;;15.47;;
11139;SDS011;5624;49.388;11.350;2024-01-15T04:38:16;28.17;;;15.53;;
11139;SDS011;5624;49.388;11.350;2024-01-15T04:40:42;28.83;;;15.33;;
11139;SDS011;5624;49.388;11.350;2024-01-15T04:43:07;30.17;;;16.37;;
11139;SDS011;5624;49.388;11.350;2024-01-15T04:45:33;29.43;;;14.93;;
11139;SDS011;5624;49.388;11.350;2024-01-15T04:47:58;28.30;;;14.83;;
11139;SDS011;5624;49.388;11.350;2024-01-15T04:50:24;28.90;;;15.83;;
11139;SDS011;5624;49.388;11.350;2024-01-15T04:52:50;25.63;;;14.27;;
11139;SDS011;5624;49.388;11.350;2024-01-15T04:55:16;27.80;;;15.47;;
11139;SDS011;5624;49.388;11.350;2024-01-15T04:57:41;31.10;;;16.00;;
11139;SDS011;5624;49.388;11.350;2024-01-15T05:00:07;24.43;;;14.93;;
11139;SDS011;5624;49.388;11.350;2024-01-15T05:02:33;28.30;;;15.83;;
11139;SDS011;5624;49.388;11.350;2024-01-15T05:04:58;27.93;;;15.37;;
11139;SDS011;5624;49.388;11.350;2024-01-15T05:07:24;28.77;;;15.97;;
11139;SDS011;5624;49.388;11.350;2024-01-15T05:09:49;30.27;;;15.93;;
11139;SDS011;5624;49.388;11.350;2024-01-15T05:12:15;29.33;;;15.80;;
11139;SDS011;5624;49.388;11.350;2024-01-15T05:14:40;29.97;;;16.00;;
11139;SDS011;5624;49.388;11.350;2024-01-15T05:17:06;28.93;;;15.53;;
11139;SDS011;5624;49.388;11.350;2024-01-15T05:19:31;30.60;;;15.80;;
11139;SDS011;5624;49.388;11.350;2024-01-15T05:21:57;28.90;;;16.23;;
11139;SDS011;5624;49.388;11.350;2024-01-15T05:24:22;28.50;;;15.47;;
11139;SDS011;5624;49.388;11.350;2024-01-15T05:26:48;27.57;;;15.30;;
11139;SDS011;5624;49.388;11.350;2024-01-15T05:29:13;28.53;;;14.47;;
11139;SDS011;5624;49.388;11.350;2024-01-15T05:31:39;31.43;;;15.90;;
11139;SDS011;5624;49.388;11.350;2024-01-15T05:34:04;33.83;;;16.37;;
11139;SDS011;5624;49.388;11.350;2024-01-15T05:36:30;30.67;;;16.20;;
11139;SDS011;5624;49.388;11.350;2024-01-15T05:38:55;31.63;;;16.50;;
11139;SDS011;5624;49.388;11.350;2024-01-15T05:41:21;26.93;;;15.60;;
11139;SDS011;5624;49.388;11.350;2024-01-15T05:43:46;32.17;;;16.23;;
11139;SDS011;5624;49.388;11.350;2024-01-15T05:46:12;29.00;;;16.80;;
11139;SDS011;5624;49.388;11.350;2024-01-15T05:48:37;31.67;;;16.37;;
11139;SDS011;5624;49.388;11.350;2024-01-15T05:51:03;26.87;;;16.30;;
11139;SDS011;5624;49.388;11.350;2024-01-15T05:53:29;26.33;;;15.73;;
11139;SDS011;5624;49.388;11.350;2024-01-15T05:55:54;27.13;;;15.57;;
11139;SDS011;5624;49.388;11.350;2024-01-15T05:58:21;29.83;;;16.53;;
11139;SDS011;5624;49.388;11.350;2024-01-15T06:00:46;27.67;;;16.77;;
11139;SDS011;5624;49.388;11.350;2024-01-15T06:03:13;29.43;;;16.30;;
11139;SDS011;5624;49.388;11.350;2024-01-15T06:05:38;27.83;;;14.70;;
11139;SDS011;5624;49.388;11.350;2024-01-15T06:08:04;26.50;;;15.47;;
11139;SDS011;5624;49.388;11.350;2024-01-15T06:10:30;27.20;;;15.27;;
11139;SDS011;5624;49.388;11.350;2024-01-15T06:12:56;25.03;;;14.97;;
11139;SDS011;5624;49.388;11.350;2024-01-15T06:15:21;25.50;;;14.73;;
11139;SDS011;5624;49.388;11.350;2024-01-15T06:17:47;24.57;;;15.07;;
11139;SDS011;5624;49.388;11.350;2024-01-15T06:20:12;27.33;;;15.70;;
11139;SDS011;5624;49.388;11.350;2024-01-15T06:22:38;23.97;;;14.47;;
11139;SDS011;5624;49.388;11.350;2024-01-15T06:25:04;24.80;;;14.47;;
11139;SDS011;5624;49.388;11.350;2024-01-15T06:27:31;25.33;;;14.70;;
11139;SDS011;5624;49.388;11.350;2024-01-15T06:29:57;23.93;;;14.60;;
11139;SDS011;5624;49.388;11.350;2024-01-15T06:32:23;28.17;;;14.80;;
11139;SDS011;5624;49.388;11.350;2024-01-15T06:34:48;21.80;;;12.97;;
11139;SDS011;5624;49.388;11.350;2024-01-15T06:37:14;26.43;;;14.67;;
11139;SDS011;5624;49.388;11.350;2024-01-15T06:39:39;26.03;;;13.93;;
11139;SDS011;5624;49.388;11.350;2024-01-15T06:42:05;21.93;;;12.77;;
11139;SDS011;5624;49.388;11.350;2024-01-15T06:44:30;22.90;;;14.17;;
11139;SDS011;5624;49.388;11.350;2024-01-15T06:46:56;22.53;;;13.30;;
11139;SDS011;5624;49.388;11.350;2024-01-15T06:49:24;23.67;;;13.60;;
11139;SDS011;5624;49.388;11.350;2024-01-15T06:51:50;21.97;;;13.97;;
11139;SDS011;5624;49.388;11.350;2024-01-15T06:54:15;22.07;;;12.73;;
11139;SDS011;5624;49.388;11.350;2024-01-15T06:56:41;25.00;;;14.23;;
11139;SDS011;5624;49.388;11.350;2024-01-15T06:59:06;19.40;;;13.40;;
11139;SDS011;5624;49.388;11.350;2024-01-15T07:01:32;23.63;;;13.77;;
11139;SDS011;5624;49.388;11.350;2024-01-15T07:03:57;23.40;;;13.23;;
11139;SDS011;5624;49.388;11.350;2024-01-15T07:06:23;25.23;;;13.23;;
11139;SDS011;5624;49.388;11.350;2024-01-15T07:08:48;25.70;;;13.93;;
11139;SDS011;5624;49.388;11.350;2024-01-15T07:11:14;24.50;;;14.47;;
11139;SDS011;5624;49.388;11.350;2024-01-15T07:13:40;22.33;;;13.90;;
11139;SDS011;5624;49.388;11.350;2024-01-15T07:16:05;21.00;;;13.70;;
11139;SDS011;5624;49.388;11.350;2024-01-15T07:18:32;25.27;;;13.67;;
11139;SDS011;5624;49.388;11.350;2024-01-15T07:20:57;24.63;;;14.00;;
11139;SDS011;5624;49.388;11.350;2024-01-15T07:23:24;26.50;;;14.17;;
11139;SDS011;5624;49.388;11.350;2024-01-15T07:25:49;22.70;;;13.77;;
11139;SDS011;5624;49.388;11.350;2024-01-15T07:28:15;27.30;;;13.70;;
11139;SDS011;5624;49.388;11.350;2024-01-15T07:30:40;25.47;;;15.00;;
11139;SDS011;5624;49.388;11.350;2024-01-15T07:33:06;25.50;;;14.57;;
11139;SDS011;5624;49.388;11.350;2024-01-15T07:35:31;21.20;;;13.87;;
11139;SDS011;5624;49.388;11.350;2024-01-15T07:37:57;22.13;;;14.23;;
11139;SDS011;5624;49.388;11.350;2024-01-15T07:40:23;25.33;;;13.90;;
11139;SDS011;5624;49.388;11.350;2024-01-15T07:42:49;23.50;;;12.97;;
11139;SDS011;5624;49.388;11.350;2024-01-15T07:45:15;23.60;;;14.17;;
11139;SDS011;5624;49.388;11.350;2024-01-15T07:47:41;23.50;;;14.87;;
11139;SDS011;5624;49.388;11.350;2024-01-15T07:50:07;23.33;;;14.23;;
11139;SDS011;5624;49.388;11.350;2024-01-15T07:52:32;24.23;;;14.87;;
11139;SDS011;5624;49.388;11.350;2024-01-15T07:54:58;22.07;;;13.90;;
11139;SDS011;5624;49.388;11.350;2024-01-15T07:57:28;23.43;;;14.57;;
11139;SDS011;5624;49.388;11.350;2024-01-15T07:59:54;22.50;;;14.10;;
11139;SDS011;5624;49.388;11.350;2024-01-15T08:02:19;24.33;;;15.10;;
11139;SDS011;5624;49.388;11.350;2024-01-15T08:04:45;20.60;;;13.77;;
11139;SDS011;5624;49.388;11.350;2024-01-15T08:07:10;21.17;;;13.90;;
11139;SDS011;5624;49.388;11.350;2024-01-15T08:09:36;23.40;;;14.83;;
11139;SDS011;5624;49.388;11.350;2024-01-15T08:12:02;22.03;;;13.87;;
11139;SDS011;5624;49.388;11.350;2024-01-15T08:14:27;22.33;;;14.03;;
11139;SDS011;5624;49.388;11.350;2024-01-15T08:16:53;22.33;;;13.97;;
11139;SDS011;5624;49.388;11.350;2024-01-15T08:19:18;24.67;;;15.20;;
11139;SDS011;5624;49.388;11.350;2024-01-15T08:21:47;24.07;;;13.93;;
11139;SDS011;5624;49.388;11.350;2024-01-15T08:24:12;25.50;;;14.03;;
11139;SDS011;5624;49.388;11.350;2024-01-15T08:26:39;25.20;;;15.10;;
11139;SDS011;5624;49.388;11.350;2024-01-15T08:29:05;24.80;;;14.73;;
11139;SDS011;5624;49.388;11.350;2024-01-15T08:31:30;23.30;;;13.77;;
11139;SDS011;5624;49.388;11.350;2024-01-15T08:33:56;24.60;;;13.93;;
11139;SDS011;5624;49.388;11.350;2024-01-15T08:36:22;20.63;;;13.57;;
11139;SDS011;5624;49.388;11.350;2024-01-15T08:38:49;26.60;;;15.17;;
11139;SDS011;5624;49.388;11.350;2024-01-15T08:41:15;20.77;;;14.07;;
11139;SDS011;5624;49.388;11.350;2024-01-15T08:43:40;23.23;;;14.03;;
11139;SDS011;5624;49.388;11.350;2024-01-15T08:46:06;23.90;;;14.53;;
11139;SDS011;5624;49.388;11.350;2024-01-15T08:48:32;21.17;;;14.33;;
11139;SDS011;5624;49.388;11.350;2024-01-15T08:50:57;20.97;;;13.70;;
11139;SDS011;5624;49.388;11.350;2024-01-15T08:53:23;19.43;;;13.10;;
11139;SDS011;5624;49.388;11.350;2024-01-15T08:55:48;20.17;;;13.43;;
11139;SDS011;5624;49.388;11.350;2024-01-15T08:58:14;21.30;;;13.13;;
11139;SDS011;5624;49.388;11.350;2024-01-15T09:00:40;20.63;;;12.97;;
11139;SDS011;5624;49.388;11.350;2024-01-15T09:03:05;18.60;;;12.00;;
11139;SDS011;5624;49.388;11.350;2024-01-15T09:05:31;20.57;;;12.30;;
11139;SDS011;5624;49.388;11.350;2024-01-15T09:07:57;18.10;;;11.73;;
11139;SDS011;5624;49.388;11.350;2024-01-15T09:10:22;18.30;;;12.13;;
11139;SDS011;5624;49.388;11.350;2024-01-15T09:12:48;18.63;;;11.97;;
11139;SDS011;5624;49.388;11.350;2024-01-15T09:15:16;17.17;;;11.83;;
11139;SDS011;5624;49.388;11.350;2024-01-15T09:17:42;18.33;;;12.40;;
11139;SDS011;5624;49.388;11.350;2024-01-15T09:20:08;16.70;;;11.50;;
11139;SDS011;5624;49.388;11.350;2024-01-15T09:22:35;18.67;;;11.50;;
11139;SDS011;5624;49.388;11.350;2024-01-15T09:25:02;16.33;;;11.60;;
11139;SDS011;5624;49.388;11.350;2024-01-15T09:27:29;19.27;;;12.27;;
11139;SDS011;5624;49.388;11.350;2024-01-15T09:29:54;17.27;;;12.13;;
11139;SDS011;5624;49.388;11.350;2024-01-15T09:32:20;15.70;;;11.53;;
11139;SDS011;5624;49.388;11.350;2024-01-15T09:34:45;18.27;;;11.20;;
11139;SDS011;5624;49.388;11.350;2024-01-15T09:37:11;18.00;;;12.30;;
11139;SDS011;5624;49.388;11.350;2024-01-15T09:39:39;16.27;;;11.53;;
11139;SDS011;5624;49.388;11.350;2024-01-15T09:42:04;14.77;;;10.97;;
11139;SDS011;5624;49.388;11.350;2024-01-15T09:44:30;18.10;;;11.77;;
11139;SDS011;5624;49.388;11.350;2024-01-15T09:46:56;16.67;;;11.67;;
11139;SDS011;5624;49.388;11.350;2024-01-15T09:49:22;16.13;;;11.23;;
11139;SDS011;5624;49.388;11.350;2024-01-15T09:51:48;18.97;;;12.37;;
11139;SDS011;5624;49.388;11.350;2024-01-15T09:54:14;17.03;;;11.53;;
11139;SDS011;5624;49.388;11.350;2024-01-15T09:56:42;16.50;;;12.40;;
11139;SDS011;5624;49.388;11.350;2024-01-15T09:59:11;17.80;;;11.30;;
11139;SDS011;5624;49.388;11.350;2024-01-15T10:01:40;16.43;;;11.40;;
11139;SDS011;5624;49.388;11.350;2024-01-15T10:04:06;16.40;;;11.23;;
11139;SDS011;5624;49.388;11.350;2024-01-15T10:06:32;14.83;;;11.53;;
11139;SDS011;5624;49.388;11.350;2024-01-15T10:08:58;14.30;;;11.03;;
11139;SDS011;5624;49.388;11.350;2024-01-15T10:11:24;16.53;;;10.97;;
11139;SDS011;5624;49.388;11.350;2024-01-15T10:13:50;16.13;;;10.43;;
11139;SDS011;5624;49.388;11.350;2024-01-15T10:16:18;17.87;;;11.50;;
11139;SDS011;5624;49.388;11.350;2024-01-15T10:18:44;18.17;;;10.73;;
11139;SDS011;5624;49.388;11.350;2024-01-15T10:21:09;16.63;;;10.40;;
11139;SDS011;5624;49.388;11.350;2024-01-15T10:23:35;14.87;;;11.33;;
11139;SDS011;5624;49.388;11.350;2024-01-15T10:26:01;15.07;;;10.00;;
11139;SDS011;5624;49.388;11.350;2024-01-15T10:28:27;16.87;;;10.97;;
11139;SDS011;5624;49.388;11.350;2024-01-15T10:30:56;15.20;;;10.67;;
11139;SDS011;5624;49.388;11.350;2024-01-15T10:33:24;14.37;;;10.27;;
11139;SDS011;5624;49.388;11.350;2024-01-15T10:35:56;13.27;;;10.17;;
11139;SDS011;5624;49.388;11.350;2024-01-15T10:38:23;16.30;;;9.53;;
11139;SDS011;5624;49.388;11.350;2024-01-15T10:40:53;14.33;;;10.17;;
11139;SDS011;5624;49.388;11.350;2024-01-15T10:43:20;15.30;;;10.90;;
11139;SDS011;5624;49.388;11.350;2024-01-15T10:45:46;17.20;;;11.17;;
11139;SDS011;5624;49.388;11.350;2024-01-15T10:48:13;12.53;;;10.33;;
11139;SDS011;5624;49.388;11.350;2024-01-15T10:50:41;14.80;;;10.23;;
11139;SDS011;5624;49.388;11.350;2024-01-15T10:53:07;14.37;;;10.30;;
11139;SDS011;5624;49.388;11.350;2024-01-15T10:55:35;14.63;;;11.07;;
11139;SDS011;5624;49.388;11.350;2024-01-15T10:58:02;12.53;;;10.07;;
11139;SDS011;5624;49.388;11.350;2024-01-15T11:00:32;15.70;;;10.83;;
11139;SDS011;5624;49.388;11.350;2024-01-15T11:03:00;15.20;;;10.53;;
11139;SDS011;5624;49.388;11.350;2024-01-15T11:05:26;13.90;;;9.50;;
11139;SDS011;5624;49.388;11.350;2024-01-15T11:07:54;15.83;;;10.50;;
11139;SDS011;5624;49.388;11.350;2024-01-15T11:10:39;15.13;;;10.90;;
11139;SDS011;5624;49.388;11.350;2024-01-15T11:16:06;16.27;;;10.33;;
11139;SDS011;5624;49.388;11.350;2024-01-15T11:18:42;14.20;;;10.83;;
11139;SDS011;5624;49.388;11.350;2024-01-15T11:21:26;13.60;;;9.90;;
11139;SDS011;5624;49.388;11.350;2024-01-15T11:28:56;13.80;;;10.23;;
11139;SDS011;5624;49.388;11.350;2024-01-15T11:31:56;14.23;;;10.80;;
11139;SDS011;5624;49.388;11.350;2024-01-15T11:34:12;13.77;;;10.50;;
11139;SDS011;5624;49.388;11.350;2024-01-15T11:41:59;12.23;;;9.53;;
11139;SDS011;5624;49.388;11.350;2024-01-15T11:44:27;13.97;;;9.83;;
11139;SDS011;5624;49.388;11.350;2024-01-15T11:49:37;13.43;;;9.83;;
11139;SDS011;5624;49.388;11.350;2024-01-15T11:52:37;13.13;;;9.87;;
11139;SDS011;5624;49.388;11.350;2024-01-15T11:55:19;12.37;;;9.73;;
11139;SDS011;5624;49.388;11.350;2024-01-15T11:58:08;13.83;;;10.43;;
11139;SDS011;5624;49.388;11.350;2024-01-15T12:00:34;13.40;;;10.27;;
11139;SDS011;5624;49.388;11.350;2024-01-15T12:03:05;15.80;;;9.40;;
11139;SDS011;5624;49.388;11.350;2024-01-15T12:05:31;14.47;;;10.23;;
11139;SDS011;5624;49.388;11.350;2024-01-15T12:07:56;13.20;;;10.00;;
11139;SDS011;5624;49.388;11.350;2024-01-15T12:10:22;12.97;;;9.73;;
11139;SDS011;5624;49.388;11.350;2024-01-15T12:15:24;11.63;;;9.43;;
11139;SDS011;5624;49.388;11.350;2024-01-15T12:17:52;16.37;;;10.63;;
11139;SDS011;5624;49.388;11.350;2024-01-15T12:20:19;15.83;;;11.17;;
11139;SDS011;5624;49.388;11.350;2024-01-15T12:22:45;15.33;;;9.87;;
11139;SDS011;5624;49.388;11.350;2024-01-15T12:25:11;12.00;;;9.63;;
11139;SDS011;5624;49.388;11.350;2024-01-15T12:27:36;12.73;;;10.00;;
11139;SDS011;5624;49.388;11.350;2024-01-15T12:30:02;13.27;;;9.47;;
11139;SDS011;5624;49.388;11.350;2024-01-15T12:32:28;12.47;;;9.80;;
11139;SDS011;5624;49.388;11.350;2024-01-15T12:34:54;13.40;;;9.07;;
11139;SDS011;5624;49.388;11.350;2024-01-15T12:37:20;13.57;;;10.00;;
11139;SDS011;5624;49.388;11.350;2024-01-15T12:39:46;11.53;;;9.33;;
11139;SDS011;5624;49.388;11.350;2024-01-15T12:42:16;12.17;;;9.23;;
11139;SDS011;5624;49.388;11.350;2024-01-15T12:44:42;16.13;;;9.47;;
11139;SDS011;5624;49.388;11.350;2024-01-15T12:47:08;13.83;;;9.27;;
11139;SDS011;5624;49.388;11.350;2024-01-15T12:49:35;12.87;;;9.23;;
11139;SDS011;5624;49.388;11.350;2024-01-15T12:52:02;12.53;;;9.27;;
11139;SDS011;5624;49.388;11.350;2024-01-15T12:54:28;12.13;;;9.53;;
11139;SDS011;5624;49.388;11.350;2024-01-15T12:56:53;12.03;;;9.33;;
11139;SDS011;5624;49.388;11.350;2024-01-15T12:59:19;10.17;;;8.07;;
11139;SDS011;5624;49.388;11.350;2024-01-15T13:01:45;11.60;;;8.80;;
11139;SDS011;5624;49.388;11.350;2024-01-15T13:04:11;12.73;;;9.17;;
11139;SDS011;5624;49.388;11.350;2024-01-15T13:06:46;12.83;;;9.33;;
11139;SDS011;5624;49.388;11.350;2024-01-15T13:09:11;14.70;;;9.27;;
11139;SDS011;5624;49.388;11.350;2024-01-15T13:11:37;14.27;;;9.10;;
11139;SDS011;5624;49.388;11.350;2024-01-15T13:14:02;12.87;;;9.57;;
11139;SDS011;5624;49.388;11.350;2024-01-15T13:16:28;11.03;;;8.90;;
11139;SDS011;5624;49.388;11.350;2024-01-15T13:18:54;11.33;;;8.90;;
11139;SDS011;5624;49.388;11.350;2024-01-15T13:21:20;12.17;;;9.03;;
11139;SDS011;5624;49.388;11.350;2024-01-15T13:23:47;13.90;;;8.57;;
11139;SDS011;5624;49.388;11.350;2024-01-15T13:26:12;12.93;;;8.60;;
11139;SDS011;5624;49.388;11.350;2024-01-15T13:28:38;12.60;;;9.47;;
11139;SDS011;5624;49.388;11.350;2024-01-15T13:31:03;12.57;;;9.13;;
11139;SDS011;5624;49.388;11.350;2024-01-15T13:33:29;11.57;;;9.10;;
11139;SDS011;5624;49.388;11.350;2024-01-15T13:35:55;10.63;;;8.60;;
11139;SDS011;5624;49.388;11.350;2024-01-15T13:38:20;11.47;;;9.20;;
11139;SDS011;5624;49.388;11.350;2024-01-15T13:40:46;12.40;;;8.80;;
11139;SDS011;5624;49.388;11.350;2024-01-15T13:43:12;10.23;;;8.43;;
11139;SDS011;5624;49.388;11.350;2024-01-15T13:45:39;10.33;;;8.10;;
11139;SDS011;5624;49.388;11.350;2024-01-15T13:48:06;11.47;;;8.73;;
11139;SDS011;5624;49.388;11.350;2024-01-15T13:50:33;12.70;;;9.50;;
11139;SDS011;5624;49.388;11.350;2024-01-15T13:53:00;11.63;;;8.70;;
11139;SDS011;5624;49.388;11.350;2024-01-15T13:55:25;11.60;;;8.60;;
11139;SDS011;5624;49.388;11.350;2024-01-15T13:57:51;10.63;;;8.13;;
11139;SDS011;5624;49.388;11.350;2024-01-15T14:00:16;10.23;;;8.60;;
11139;SDS011;5624;49.388;11.350;2024-01-15T14:02:45;12.87;;;9.07;;
11139;SDS011;5624;49.388;11.350;2024-01-15T14:05:11;12.10;;;8.53;;
11139;SDS011;5624;49.388;11.350;2024-01-15T14:07:41;11.70;;;8.43;;
11139;SDS011;5624;49.388;11.350;2024-01-15T14:10:08;9.67;;;7.87;;
11139;SDS011;5624;49.388;11.350;2024-01-15T14:12:34;13.57;;;9.00;;
11139;SDS011;5624;49.388;11.350;2024-01-15T14:15:01;11.27;;;8.67;;
11139;SDS011;5624;49.388;11.350;2024-01-15T14:17:27;12.57;;;9.10;;
11139;SDS011;5624;49.388;11.350;2024-01-15T14:19:53;11.33;;;8.27;;
11139;SDS011;5624;49.388;11.350;2024-01-15T14:22:18;10.70;;;8.63;;
11139;SDS011;5624;49.388;11.350;2024-01-15T14:24:44;13.50;;;10.10;;
11139;SDS011;5624;49.388;11.350;2024-01-15T14:27:09;11.00;;;9.00;;
11139;SDS011;5624;49.388;11.350;2024-01-15T14:29:35;12.23;;;9.43;;
11139;SDS011;5624;49.388;11.350;2024-01-15T14:32:00;13.17;;;9.47;;
11139;SDS011;5624;49.388;11.350;2024-01-15T14:34:26;12.43;;;9.17;;
11139;SDS011;5624;49.388;11.350;2024-01-15T14:36:52;11.83;;;9.03;;